sensor_id;sensor_type;location;lat;lon;timestamp;P1;durP1;ratioP1;P2;durP2;ratioP2
62006;SDS011;47963;53.008;6.754;2022-08-19T00:01:27;10.55;;;6.65;;
62006;SDS011;47963;53.008;6.754;2022-08-19T00:03:55;9.73;;;6.68;;
62006;SDS011;47963;53.008;6.754;2022-08-19T00:06:29;9.98;;;6.68;;
62006;SDS011;47963;53.008;6.754;2022-08-19T00:08:56;9.25;;;6.35;;
62006;SDS011;47963;53.008;6.754;2022-08-19T00:11:23;8.45;;;6.10;;
62006;SDS011;47963;53.008;6.754;2022-08-19T00:13:49;8.80;;;6.05;;
62006;SDS011;47963;53.008;6.754;2022-08-19T00:16:18;10.50;;;7.10;;
62006;SDS011;47963;53.008;6.754;2022-08-19T00:18:45;8.35;;;6.60;;
62006;SDS011;47963;53.008;6.754;2022-08-19T00:21:12;9.93;;;7.00;;
62006;SDS011;47963;53.008;6.754;2022-08-19T00:23:39;13.23;;;7.40;;
62006;SDS011;47963;53.008;6.754;2022-08-19T00:26:05;10.15;;;7.65;;
62006;SDS011;47963;53.008;6.754;2022-08-19T00:28:31;10.60;;;8.20;;
62006;SDS011;47963;53.008;6.754;2022-08-19T00:30:58;10.85;;;7.95;;
62006;SDS011;47963;53.008;6.754;2022-08-19T00:33:24;10.68;;;7.97;;
62006;SDS011;47963;53.008;6.754;2022-08-19T00:35:50;9.80;;;8.18;;
62006;SDS011;47963;53.008;6.754;2022-08-19T00:38:16;9.60;;;7.78;;
62006;SDS011;47963;53.008;6.754;2022-08-19T00:40:43;10.05;;;7.80;;
62006;SDS011;47963;53.008;6.754;2022-08-19T00:43:12;10.38;;;7.80;;
62006;SDS011;47963;53.008;6.754;2022-08-19T00:45:38;13.05;;;7.90;;
62006;SDS011;47963;53.008;6.754;2022-08-19T00:48:06;10.88;;;8.30;;
62006;SDS011;47963;53.008;6.754;2022-08-19T00:50:33;9.73;;;8.25;;
62006;SDS011;47963;53.008;6.754;2022-08-19T00:53:02;10.80;;;8.05;;
62006;SDS011;47963;53.008;6.754;2022-08-19T00:55:29;10.60;;;8.50;;
62006;SDS011;47963;53.008;6.754;2022-08-19T00:58:02;9.70;;;7.90;;
62006;SDS011;47963;53.008;6.754;2022-08-19T01:00:35;9.95;;;8.18;;
62006;SDS011;47963;53.008;6.754;2022-08-19T01:03:03;10.38;;;8.48;;
62006;SDS011;47963;53.008;6.754;2022-08-19T01:05:31;11.50;;;8.43;;
62006;SDS011;47963;53.008;6.754;2022-08-19T01:07:58;9.95;;;8.40;;
62006;SDS011;47963;53.008;6.754;2022-08-19T01:10:29;10.32;;;7.93;;
62006;SDS011;47963;53.008;6.754;2022-08-19T01:12:57;11.50;;;8.90;;
62006;SDS011;47963;53.008;6.754;2022-08-19T01:15:30;11.20;;;9.07;;
62006;SDS011;47963;53.008;6.754;2022-08-19T01:17:59;10.57;;;8.23;;
62006;SDS011;47963;53.008;6.754;2022-08-19T01:20:31;12.05;;;8.48;;
62006;SDS011;47963;53.008;6.754;2022-08-19T01:22:58;10.20;;;8.43;;
62006;SDS011;47963;53.008;6.754;2022-08-19T01:25:44;12.73;;;8.10;;
62006;SDS011;47963;53.008;6.754;2022-08-19T01:28:16;12.43;;;8.35;;
62006;SDS011;47963;53.008;6.754;2022-08-19T01:30:42;9.88;;;7.72;;
62006;SDS011;47963;53.008;6.754;2022-08-19T01:33:08;11.50;;;7.78;;
62006;SDS011;47963;53.008;6.754;2022-08-19T01:35:35;9.40;;;7.50;;
62006;SDS011;47963;53.008;6.754;2022-08-19T01:38:06;10.30;;;7.30;;
62006;SDS011;47963;53.008;6.754;2022-08-19T01:40:36;10.90;;;7.72;;
62006;SDS011;47963;53.008;6.754;2022-08-19T01:43:04;10.32;;;7.85;;
62006;SDS011;47963;53.008;6.754;2022-08-19T01:45:31;13.82;;;8.90;;
62006;SDS011;47963;53.008;6.754;2022-08-19T01:47:58;9.88;;;7.60;;
62006;SDS011;47963;53.008;6.754;2022-08-19T01:50:25;9.45;;;7.85;;
62006;SDS011;47963;53.008;6.754;2022-08-19T01:52:51;10.65;;;8.27;;
62006;SDS011;47963;53.008;6.754;2022-08-19T01:55:18;11.60;;;8.18;;
62006;SDS011;47963;53.008;6.754;2022-08-19T01:57:47;10.20;;;8.35;;
62006;SDS011;47963;53.008;6.754;2022-08-19T02:00:17;12.30;;;8.25;;
62006;SDS011;47963;53.008;6.754;2022-08-19T02:02:45;10.23;;;8.23;;
62006;SDS011;47963;53.008;6.754;2022-08-19T02:05:11;10.25;;;7.82;;
62006;SDS011;47963;53.008;6.754;2022-08-19T02:07:38;9.95;;;7.93;;
62006;SDS011;47963;53.008;6.754;2022-08-19T02:10:07;11.85;;;8.40;;
62006;SDS011;47963;53.008;6.754;2022-08-19T02:12:36;10.98;;;8.15;;
62006;SDS011;47963;53.008;6.754;2022-08-19T02:15:02;10.30;;;8.00;;
62006;SDS011;47963;53.008;6.754;2022-08-19T02:17:28;12.27;;;9.05;;
62006;SDS011;47963;53.008;6.754;2022-08-19T02:19:55;11.88;;;9.13;;
62006;SDS011;47963;53.008;6.754;2022-08-19T02:22:21;10.85;;;8.85;;
62006;SDS011;47963;53.008;6.754;2022-08-19T02:24:47;12.10;;;9.32;;
62006;SDS011;47963;53.008;6.754;2022-08-19T02:27:14;13.77;;;9.73;;
62006;SDS011;47963;53.008;6.754;2022-08-19T02:29:40;11.48;;;9.10;;
62006;SDS011;47963;53.008;6.754;2022-08-19T02:32:06;12.40;;;9.70;;
62006;SDS011;47963;53.008;6.754;2022-08-19T02:34:32;12.52;;;10.38;;
62006;SDS011;47963;53.008;6.754;2022-08-19T02:36:58;12.48;;;10.10;;
62006;SDS011;47963;53.008;6.754;2022-08-19T02:39:23;13.40;;;10.88;;
62006;SDS011;47963;53.008;6.754;2022-08-19T02:41:49;12.55;;;10.30;;
62006;SDS011;47963;53.008;6.754;2022-08-19T02:44:16;13.38;;;11.00;;
62006;SDS011;47963;53.008;6.754;2022-08-19T02:46:42;13.15;;;10.93;;
62006;SDS011;47963;53.008;6.754;2022-08-19T02:49:09;13.23;;;10.73;;
62006;SDS011;47963;53.008;6.754;2022-08-19T02:51:38;12.98;;;10.55;;
62006;SDS011;47963;53.008;6.754;2022-08-19T02:54:06;13.93;;;10.98;;
62006;SDS011;47963;53.008;6.754;2022-08-19T02:56:37;14.25;;;11.48;;
62006;SDS011;47963;53.008;6.754;2022-08-19T02:59:05;13.05;;;11.30;;
62006;SDS011;47963;53.008;6.754;2022-08-19T03:01:33;12.98;;;10.98;;
62006;SDS011;47963;53.008;6.754;2022-08-19T03:04:01;13.38;;;11.98;;
62006;SDS011;47963;53.008;6.754;2022-08-19T03:06:29;13.13;;;11.52;;
62006;SDS011;47963;53.008;6.754;2022-08-19T03:08:55;13.15;;;11.45;;
62006;SDS011;47963;53.008;6.754;2022-08-19T03:11:23;14.02;;;11.23;;
62006;SDS011;47963;53.008;6.754;2022-08-19T03:13:58;14.15;;;11.43;;
62006;SDS011;47963;53.008;6.754;2022-08-19T03:16:26;13.20;;;11.13;;
62006;SDS011;47963;53.008;6.754;2022-08-19T03:18:55;13.80;;;10.52;;
62006;SDS011;47963;53.008;6.754;2022-08-19T03:21:22;11.82;;;10.35;;
62006;SDS011;47963;53.008;6.754;2022-08-19T03:23:50;12.82;;;10.60;;
62006;SDS011;47963;53.008;6.754;2022-08-19T03:26:19;13.80;;;11.18;;
62006;SDS011;47963;53.008;6.754;2022-08-19T03:28:45;12.73;;;11.27;;
62006;SDS011;47963;53.008;6.754;2022-08-19T03:31:15;13.90;;;11.55;;
62006;SDS011;47963;53.008;6.754;2022-08-19T03:33:42;13.98;;;11.65;;
62006;SDS011;47963;53.008;6.754;2022-08-19T03:36:11;13.77;;;12.15;;
62006;SDS011;47963;53.008;6.754;2022-08-19T03:38:44;13.48;;;11.18;;
62006;SDS011;47963;53.008;6.754;2022-08-19T03:41:14;14.20;;;11.75;;
62006;SDS011;47963;53.008;6.754;2022-08-19T03:43:44;14.30;;;11.47;;
62006;SDS011;47963;53.008;6.754;2022-08-19T03:46:15;14.45;;;10.98;;
62006;SDS011;47963;53.008;6.754;2022-08-19T03:48:43;15.82;;;11.65;;
62006;SDS011;47963;53.008;6.754;2022-08-19T03:54:06;11.32;;;9.48;;
62006;SDS011;47963;53.008;6.754;2022-08-19T03:56:33;10.85;;;8.57;;
62006;SDS011;47963;53.008;6.754;2022-08-19T03:59:00;9.85;;;7.40;;
62006;SDS011;47963;53.008;6.754;2022-08-19T04:01:27;10.10;;;7.50;;
62006;SDS011;47963;53.008;6.754;2022-08-19T04:03:53;11.45;;;7.53;;
62006;SDS011;47963;53.008;6.754;2022-08-19T04:06:25;10.00;;;6.88;;
62006;SDS011;47963;53.008;6.754;2022-08-19T04:08:53;10.27;;;7.25;;
62006;SDS011;47963;53.008;6.754;2022-08-19T04:11:22;10.30;;;7.60;;
62006;SDS011;47963;53.008;6.754;2022-08-19T04:13:50;12.00;;;8.30;;
62006;SDS011;47963;53.008;6.754;2022-08-19T04:16:20;10.80;;;8.38;;
62006;SDS011;47963;53.008;6.754;2022-08-19T04:18:48;10.90;;;7.90;;
62006;SDS011;47963;53.008;6.754;2022-08-19T04:21:17;10.90;;;8.52;;
62006;SDS011;47963;53.008;6.754;2022-08-19T04:23:45;11.18;;;8.98;;
62006;SDS011;47963;53.008;6.754;2022-08-19T04:26:13;11.68;;;9.30;;
62006;SDS011;47963;53.008;6.754;2022-08-19T04:29:00;13.23;;;9.32;;
62006;SDS011;47963;53.008;6.754;2022-08-19T04:31:27;12.30;;;9.15;;
62006;SDS011;47963;53.008;6.754;2022-08-19T04:33:55;12.70;;;9.80;;
62006;SDS011;47963;53.008;6.754;2022-08-19T04:36:24;11.00;;;8.82;;
62006;SDS011;47963;53.008;6.754;2022-08-19T04:38:56;14.55;;;10.85;;
62006;SDS011;47963;53.008;6.754;2022-08-19T04:41:24;13.73;;;11.10;;
62006;SDS011;47963;53.008;6.754;2022-08-19T04:44:08;14.20;;;10.68;;
62006;SDS011;47963;53.008;6.754;2022-08-19T04:46:34;11.80;;;9.65;;
62006;SDS011;47963;53.008;6.754;2022-08-19T04:49:00;15.13;;;11.35;;
62006;SDS011;47963;53.008;6.754;2022-08-19T04:51:29;12.27;;;10.35;;
62006;SDS011;47963;53.008;6.754;2022-08-19T04:53:56;18.15;;;12.77;;
62006;SDS011;47963;53.008;6.754;2022-08-19T04:56:22;16.60;;;13.93;;
62006;SDS011;47963;53.008;6.754;2022-08-19T04:58:51;19.88;;;15.70;;
62006;SDS011;47963;53.008;6.754;2022-08-19T05:01:18;16.63;;;13.40;;
62006;SDS011;47963;53.008;6.754;2022-08-19T05:03:46;16.20;;;13.40;;
62006;SDS011;47963;53.008;6.754;2022-08-19T05:06:12;15.25;;;11.70;;
62006;SDS011;47963;53.008;6.754;2022-08-19T05:08:40;17.77;;;12.68;;
62006;SDS011;47963;53.008;6.754;2022-08-19T05:11:21;17.08;;;13.20;;
62006;SDS011;47963;53.008;6.754;2022-08-19T05:13:50;17.83;;;13.93;;
62006;SDS011;47963;53.008;6.754;2022-08-19T05:16:18;15.73;;;12.95;;
62006;SDS011;47963;53.008;6.754;2022-08-19T05:18:45;16.40;;;13.60;;
62006;SDS011;47963;53.008;6.754;2022-08-19T05:21:30;20.83;;;16.70;;
62006;SDS011;47963;53.008;6.754;2022-08-19T05:24:15;19.30;;;15.80;;
62006;SDS011;47963;53.008;6.754;2022-08-19T05:26:44;21.95;;;17.63;;
62006;SDS011;47963;53.008;6.754;2022-08-19T05:29:12;24.75;;;18.20;;
62006;SDS011;47963;53.008;6.754;2022-08-19T05:31:40;19.90;;;17.02;;
62006;SDS011;47963;53.008;6.754;2022-08-19T05:34:06;20.58;;;17.88;;
62006;SDS011;47963;53.008;6.754;2022-08-19T05:36:34;23.00;;;18.10;;
62006;SDS011;47963;53.008;6.754;2022-08-19T05:39:10;23.35;;;18.25;;
62006;SDS011;47963;53.008;6.754;2022-08-19T05:41:41;25.67;;;18.65;;
62006;SDS011;47963;53.008;6.754;2022-08-19T05:44:08;21.55;;;17.55;;
62006;SDS011;47963;53.008;6.754;2022-08-19T05:46:35;21.73;;;17.40;;
62006;SDS011;47963;53.008;6.754;2022-08-19T05:49:03;24.15;;;18.73;;
62006;SDS011;47963;53.008;6.754;2022-08-19T05:51:30;21.27;;;18.25;;
62006;SDS011;47963;53.008;6.754;2022-08-19T05:53:57;21.85;;;19.15;;
62006;SDS011;47963;53.008;6.754;2022-08-19T05:56:23;22.58;;;18.80;;
62006;SDS011;47963;53.008;6.754;2022-08-19T05:58:49;21.30;;;18.88;;
62006;SDS011;47963;53.008;6.754;2022-08-19T06:01:15;22.77;;;19.20;;
62006;SDS011;47963;53.008;6.754;2022-08-19T06:03:43;23.70;;;19.75;;
62006;SDS011;47963;53.008;6.754;2022-08-19T06:06:10;23.42;;;19.52;;
62006;SDS011;47963;53.008;6.754;2022-08-19T06:08:37;22.50;;;18.48;;
62006;SDS011;47963;53.008;6.754;2022-08-19T06:11:16;24.40;;;19.48;;
62006;SDS011;47963;53.008;6.754;2022-08-19T06:13:45;21.73;;;17.90;;
62006;SDS011;47963;53.008;6.754;2022-08-19T06:16:14;21.73;;;18.30;;
62006;SDS011;47963;53.008;6.754;2022-08-19T06:18:47;19.42;;;17.33;;
62006;SDS011;47963;53.008;6.754;2022-08-19T06:21:15;19.33;;;16.17;;
62006;SDS011;47963;53.008;6.754;2022-08-19T06:23:40;21.80;;;17.42;;
62006;SDS011;47963;53.008;6.754;2022-08-19T06:26:07;20.52;;;17.42;;
62006;SDS011;47963;53.008;6.754;2022-08-19T06:28:37;19.90;;;16.30;;
62006;SDS011;47963;53.008;6.754;2022-08-19T06:31:07;19.33;;;16.45;;
62006;SDS011;47963;53.008;6.754;2022-08-19T06:33:34;20.33;;;16.00;;
62006;SDS011;47963;53.008;6.754;2022-08-19T06:36:00;19.60;;;15.18;;
62006;SDS011;47963;53.008;6.754;2022-08-19T06:38:26;17.50;;;14.40;;
62006;SDS011;47963;53.008;6.754;2022-08-19T06:40:59;18.27;;;14.98;;
62006;SDS011;47963;53.008;6.754;2022-08-19T06:43:26;16.63;;;14.70;;
62006;SDS011;47963;53.008;6.754;2022-08-19T06:45:52;16.73;;;14.75;;
62006;SDS011;47963;53.008;6.754;2022-08-19T06:48:17;17.05;;;14.13;;
62006;SDS011;47963;53.008;6.754;2022-08-19T06:50:43;16.30;;;13.70;;
62006;SDS011;47963;53.008;6.754;2022-08-19T06:53:09;19.05;;;14.80;;
62006;SDS011;47963;53.008;6.754;2022-08-19T06:55:34;16.48;;;14.18;;
62006;SDS011;47963;53.008;6.754;2022-08-19T06:58:03;16.25;;;13.82;;
62006;SDS011;47963;53.008;6.754;2022-08-19T07:00:29;19.52;;;14.68;;
62006;SDS011;47963;53.008;6.754;2022-08-19T07:02:55;15.85;;;14.15;;
62006;SDS011;47963;53.008;6.754;2022-08-19T07:05:21;16.42;;;13.95;;
62006;SDS011;47963;53.008;6.754;2022-08-19T07:07:47;17.60;;;14.38;;
62006;SDS011;47963;53.008;6.754;2022-08-19T07:10:12;17.10;;;14.27;;
62006;SDS011;47963;53.008;6.754;2022-08-19T07:12:38;17.15;;;14.23;;
62006;SDS011;47963;53.008;6.754;2022-08-19T07:15:05;19.45;;;13.98;;
62006;SDS011;47963;53.008;6.754;2022-08-19T07:17:33;17.60;;;14.38;;
62006;SDS011;47963;53.008;6.754;2022-08-19T07:20:02;15.43;;;13.55;;
62006;SDS011;47963;53.008;6.754;2022-08-19T07:22:28;16.08;;;13.45;;
62006;SDS011;47963;53.008;6.754;2022-08-19T07:24:54;18.55;;;14.40;;
62006;SDS011;47963;53.008;6.754;2022-08-19T07:27:20;15.52;;;12.88;;
62006;SDS011;47963;53.008;6.754;2022-08-19T07:29:46;16.27;;;14.25;;
62006;SDS011;47963;53.008;6.754;2022-08-19T07:32:12;18.17;;;14.85;;
62006;SDS011;47963;53.008;6.754;2022-08-19T07:34:38;17.13;;;13.75;;
62006;SDS011;47963;53.008;6.754;2022-08-19T07:37:04;17.13;;;13.82;;
62006;SDS011;47963;53.008;6.754;2022-08-19T07:39:32;15.20;;;13.48;;
62006;SDS011;47963;53.008;6.754;2022-08-19T07:42:00;15.88;;;13.15;;
62006;SDS011;47963;53.008;6.754;2022-08-19T07:44:28;15.63;;;13.50;;
62006;SDS011;47963;53.008;6.754;2022-08-19T07:46:55;16.92;;;14.82;;
62006;SDS011;47963;53.008;6.754;2022-08-19T07:49:22;16.88;;;14.15;;
62006;SDS011;47963;53.008;6.754;2022-08-19T07:51:49;16.95;;;13.70;;
62006;SDS011;47963;53.008;6.754;2022-08-19T07:54:19;17.50;;;13.95;;
62006;SDS011;47963;53.008;6.754;2022-08-19T07:56:46;16.67;;;13.85;;
62006;SDS011;47963;53.008;6.754;2022-08-19T07:59:11;16.15;;;13.50;;
62006;SDS011;47963;53.008;6.754;2022-08-19T08:01:38;17.63;;;13.90;;
62006;SDS011;47963;53.008;6.754;2022-08-19T08:04:05;18.52;;;14.32;;
62006;SDS011;47963;53.008;6.754;2022-08-19T08:06:50;16.75;;;13.80;;
62006;SDS011;47963;53.008;6.754;2022-08-19T08:09:37;15.55;;;13.85;;
62006;SDS011;47963;53.008;6.754;2022-08-19T08:12:05;14.32;;;11.98;;
62006;SDS011;47963;53.008;6.754;2022-08-19T08:17:09;15.25;;;12.10;;
62006;SDS011;47963;53.008;6.754;2022-08-19T08:19:36;14.20;;;11.73;;
62006;SDS011;47963;53.008;6.754;2022-08-19T08:22:02;13.00;;;10.82;;
62006;SDS011;47963;53.008;6.754;2022-08-19T08:24:30;14.07;;;12.07;;
62006;SDS011;47963;53.008;6.754;2022-08-19T08:26:57;14.88;;;11.98;;
62006;SDS011;47963;53.008;6.754;2022-08-19T08:29:28;15.77;;;13.10;;
62006;SDS011;47963;53.008;6.754;2022-08-19T08:31:55;13.90;;;11.13;;
62006;SDS011;47963;53.008;6.754;2022-08-19T08:34:20;14.27;;;11.10;;
62006;SDS011;47963;53.008;6.754;2022-08-19T08:36:46;13.73;;;9.15;;
62006;SDS011;47963;53.008;6.754;2022-08-19T08:39:14;11.50;;;8.75;;
62006;SDS011;47963;53.008;6.754;2022-08-19T08:42:05;11.60;;;8.35;;
62006;SDS011;47963;53.008;6.754;2022-08-19T08:44:53;10.60;;;7.07;;
62006;SDS011;47963;53.008;6.754;2022-08-19T08:47:19;11.45;;;7.97;;
62006;SDS011;47963;53.008;6.754;2022-08-19T08:49:51;10.30;;;7.60;;
62006;SDS011;47963;53.008;6.754;2022-08-19T08:52:18;12.50;;;7.53;;
62006;SDS011;47963;53.008;6.754;2022-08-19T08:55:01;11.73;;;8.60;;
62006;SDS011;47963;53.008;6.754;2022-08-19T09:00:17;11.20;;;7.78;;
62006;SDS011;47963;53.008;6.754;2022-08-19T09:02:56;9.98;;;6.53;;
62006;SDS011;47963;53.008;6.754;2022-08-19T09:05:23;10.95;;;8.95;;
62006;SDS011;47963;53.008;6.754;2022-08-19T09:08:06;10.95;;;8.43;;
62006;SDS011;47963;53.008;6.754;2022-08-19T09:15:43;14.38;;;11.25;;
62006;SDS011;47963;53.008;6.754;2022-08-19T09:18:13;13.13;;;10.75;;
62006;SDS011;47963;53.008;6.754;2022-08-19T09:20:41;10.95;;;8.52;;
62006;SDS011;47963;53.008;6.754;2022-08-19T09:23:06;12.50;;;11.02;;
62006;SDS011;47963;53.008;6.754;2022-08-19T09:25:33;13.10;;;10.90;;
62006;SDS011;47963;53.008;6.754;2022-08-19T09:27:59;13.18;;;10.85;;
62006;SDS011;47963;53.008;6.754;2022-08-19T09:30:29;12.43;;;11.10;;
62006;SDS011;47963;53.008;6.754;2022-08-19T09:32:57;13.52;;;11.00;;
62006;SDS011;47963;53.008;6.754;2022-08-19T09:35:23;14.25;;;12.75;;
62006;SDS011;47963;53.008;6.754;2022-08-19T09:37:51;13.80;;;12.30;;
62006;SDS011;47963;53.008;6.754;2022-08-19T09:40:18;15.10;;;13.50;;
62006;SDS011;47963;53.008;6.754;2022-08-19T09:42:44;14.25;;;12.68;;
62006;SDS011;47963;53.008;6.754;2022-08-19T09:45:12;14.95;;;12.55;;
62006;SDS011;47963;53.008;6.754;2022-08-19T09:47:39;14.68;;;13.07;;
62006;SDS011;47963;53.008;6.754;2022-08-19T09:50:06;15.73;;;14.02;;
62006;SDS011;47963;53.008;6.754;2022-08-19T09:52:33;15.95;;;14.27;;
62006;SDS011;47963;53.008;6.754;2022-08-19T09:55:04;14.18;;;12.27;;
62006;SDS011;47963;53.008;6.754;2022-08-19T09:57:31;13.35;;;10.90;;
62006;SDS011;47963;53.008;6.754;2022-08-19T09:59:56;13.85;;;12.20;;
62006;SDS011;47963;53.008;6.754;2022-08-19T10:02:22;12.88;;;11.45;;
62006;SDS011;47963;53.008;6.754;2022-08-19T10:04:48;17.80;;;13.57;;
62006;SDS011;47963;53.008;6.754;2022-08-19T10:07:32;15.07;;;13.48;;
62006;SDS011;47963;53.008;6.754;2022-08-19T10:09:58;13.52;;;11.80;;
62006;SDS011;47963;53.008;6.754;2022-08-19T10:12:24;13.90;;;11.77;;
62006;SDS011;47963;53.008;6.754;2022-08-19T10:14:49;11.30;;;9.68;;
62006;SDS011;47963;53.008;6.754;2022-08-19T10:17:16;11.70;;;9.90;;
62006;SDS011;47963;53.008;6.754;2022-08-19T10:19:42;11.77;;;9.98;;
62006;SDS011;47963;53.008;6.754;2022-08-19T10:22:08;11.63;;;9.25;;
62006;SDS011;47963;53.008;6.754;2022-08-19T10:24:39;11.25;;;9.82;;
62006;SDS011;47963;53.008;6.754;2022-08-19T10:27:05;12.63;;;10.00;;
62006;SDS011;47963;53.008;6.754;2022-08-19T10:29:31;10.40;;;8.25;;
62006;SDS011;47963;53.008;6.754;2022-08-19T10:31:59;12.25;;;9.70;;
62006;SDS011;47963;53.008;6.754;2022-08-19T10:34:27;12.63;;;10.27;;
62006;SDS011;47963;53.008;6.754;2022-08-19T10:36:53;11.75;;;9.68;;
62006;SDS011;47963;53.008;6.754;2022-08-19T10:39:19;10.38;;;9.00;;
62006;SDS011;47963;53.008;6.754;2022-08-19T10:41:45;11.00;;;8.98;;
62006;SDS011;47963;53.008;6.754;2022-08-19T10:44:12;14.32;;;11.77;;
62006;SDS011;47963;53.008;6.754;2022-08-19T10:46:40;13.15;;;10.98;;
62006;SDS011;47963;53.008;6.754;2022-08-19T10:49:07;12.10;;;10.23;;
62006;SDS011;47963;53.008;6.754;2022-08-19T10:51:34;11.65;;;9.85;;
62006;SDS011;47963;53.008;6.754;2022-08-19T10:54:19;13.25;;;10.50;;
62006;SDS011;47963;53.008;6.754;2022-08-19T10:56:45;10.85;;;9.32;;
62006;SDS011;47963;53.008;6.754;2022-08-19T10:59:17;12.27;;;10.38;;
62006;SDS011;47963;53.008;6.754;2022-08-19T11:01:48;14.68;;;11.82;;
62006;SDS011;47963;53.008;6.754;2022-08-19T11:04:14;12.90;;;10.30;;
62006;SDS011;47963;53.008;6.754;2022-08-19T11:06:42;11.95;;;9.93;;
62006;SDS011;47963;53.008;6.754;2022-08-19T11:09:22;11.88;;;10.10;;
62006;SDS011;47963;53.008;6.754;2022-08-19T11:11:49;12.40;;;9.77;;
62006;SDS011;47963;53.008;6.754;2022-08-19T11:14:17;11.30;;;8.68;;
62006;SDS011;47963;53.008;6.754;2022-08-19T11:16:45;11.57;;;8.70;;
62006;SDS011;47963;53.008;6.754;2022-08-19T11:19:15;11.38;;;9.93;;
62006;SDS011;47963;53.008;6.754;2022-08-19T11:21:44;11.63;;;9.18;;
62006;SDS011;47963;53.008;6.754;2022-08-19T11:24:22;10.68;;;8.68;;
62006;SDS011;47963;53.008;6.754;2022-08-19T11:26:50;10.82;;;9.02;;
62006;SDS011;47963;53.008;6.754;2022-08-19T11:29:20;11.50;;;8.50;;
62006;SDS011;47963;53.008;6.754;2022-08-19T11:31:48;10.50;;;8.88;;
62006;SDS011;47963;53.008;6.754;2022-08-19T11:34:16;12.85;;;8.90;;
62006;SDS011;47963;53.008;6.754;2022-08-19T11:36:45;11.85;;;9.38;;
62006;SDS011;47963;53.008;6.754;2022-08-19T11:39:13;11.27;;;9.93;;
62006;SDS011;47963;53.008;6.754;2022-08-19T11:41:41;12.18;;;9.90;;
62006;SDS011;47963;53.008;6.754;2022-08-19T11:44:07;10.82;;;9.00;;
62006;SDS011;47963;53.008;6.754;2022-08-19T11:46:33;12.10;;;8.77;;
62006;SDS011;47963;53.008;6.754;2022-08-19T11:49:00;11.23;;;9.48;;
62006;SDS011;47963;53.008;6.754;2022-08-19T11:51:28;10.80;;;9.65;;
62006;SDS011;47963;53.008;6.754;2022-08-19T11:53:55;11.75;;;9.85;;
62006;SDS011;47963;53.008;6.754;2022-08-19T11:56:23;10.55;;;8.40;;
62006;SDS011;47963;53.008;6.754;2022-08-19T11:58:50;11.57;;;8.82;;
62006;SDS011;47963;53.008;6.754;2022-08-19T12:01:18;10.07;;;8.93;;
62006;SDS011;47963;53.008;6.754;2022-08-19T12:03:45;11.88;;;9.15;;
62006;SDS011;47963;53.008;6.754;2022-08-19T12:06:13;11.15;;;9.43;;
62006;SDS011;47963;53.008;6.754;2022-08-19T12:08:43;11.88;;;9.95;;
62006;SDS011;47963;53.008;6.754;2022-08-19T12:11:09;10.25;;;8.70;;
62006;SDS011;47963;53.008;6.754;2022-08-19T12:13:36;12.48;;;9.00;;
62006;SDS011;47963;53.008;6.754;2022-08-19T12:16:10;11.18;;;9.32;;
62006;SDS011;47963;53.008;6.754;2022-08-19T12:18:41;10.98;;;9.02;;
62006;SDS011;47963;53.008;6.754;2022-08-19T12:21:10;11.60;;;7.57;;
62006;SDS011;47963;53.008;6.754;2022-08-19T12:23:39;14.13;;;10.45;;
62006;SDS011;47963;53.008;6.754;2022-08-19T12:26:05;10.88;;;9.77;;
62006;SDS011;47963;53.008;6.754;2022-08-19T12:28:31;10.70;;;8.80;;
62006;SDS011;47963;53.008;6.754;2022-08-19T12:30:57;14.40;;;12.90;;
62006;SDS011;47963;53.008;6.754;2022-08-19T12:33:23;12.40;;;9.98;;
62006;SDS011;47963;53.008;6.754;2022-08-19T12:35:52;12.23;;;10.93;;
62006;SDS011;47963;53.008;6.754;2022-08-19T12:38:21;13.32;;;11.93;;
62006;SDS011;47963;53.008;6.754;2022-08-19T12:40:49;14.10;;;12.60;;
62006;SDS011;47963;53.008;6.754;2022-08-19T12:43:17;12.80;;;10.95;;
62006;SDS011;47963;53.008;6.754;2022-08-19T12:45:44;14.88;;;13.02;;
62006;SDS011;47963;53.008;6.754;2022-08-19T12:48:10;12.88;;;11.40;;
62006;SDS011;47963;53.008;6.754;2022-08-19T12:50:38;13.82;;;11.20;;
62006;SDS011;47963;53.008;6.754;2022-08-19T12:53:04;14.52;;;12.80;;
62006;SDS011;47963;53.008;6.754;2022-08-19T12:55:30;14.27;;;12.40;;
62006;SDS011;47963;53.008;6.754;2022-08-19T12:57:56;13.80;;;12.23;;
62006;SDS011;47963;53.008;6.754;2022-08-19T13:00:22;13.25;;;10.40;;
62006;SDS011;47963;53.008;6.754;2022-08-19T13:02:49;13.18;;;10.45;;
62006;SDS011;47963;53.008;6.754;2022-08-19T13:05:20;12.70;;;7.80;;
62006;SDS011;47963;53.008;6.754;2022-08-19T13:07:48;9.32;;;6.32;;
62006;SDS011;47963;53.008;6.754;2022-08-19T13:10:16;9.82;;;7.10;;
62006;SDS011;47963;53.008;6.754;2022-08-19T13:12:45;9.43;;;7.10;;
62006;SDS011;47963;53.008;6.754;2022-08-19T13:15:12;10.90;;;6.65;;
62006;SDS011;47963;53.008;6.754;2022-08-19T13:17:40;10.73;;;6.88;;
62006;SDS011;47963;53.008;6.754;2022-08-19T13:20:07;9.73;;;7.15;;
62006;SDS011;47963;53.008;6.754;2022-08-19T13:22:34;8.27;;;5.90;;
62006;SDS011;47963;53.008;6.754;2022-08-19T13:25:01;10.43;;;7.20;;
62006;SDS011;47963;53.008;6.754;2022-08-19T13:27:27;9.02;;;6.50;;
62006;SDS011;47963;53.008;6.754;2022-08-19T13:29:53;12.13;;;6.43;;
62006;SDS011;47963;53.008;6.754;2022-08-19T13:32:37;9.68;;;6.25;;
62006;SDS011;47963;53.008;6.754;2022-08-19T13:35:22;11.07;;;7.90;;
62006;SDS011;47963;53.008;6.754;2022-08-19T13:37:47;11.32;;;8.55;;
62006;SDS011;47963;53.008;6.754;2022-08-19T13:40:14;11.05;;;8.80;;
62006;SDS011;47963;53.008;6.754;2022-08-19T13:42:47;10.98;;;8.60;;
62006;SDS011;47963;53.008;6.754;2022-08-19T13:45:15;10.65;;;7.95;;
62006;SDS011;47963;53.008;6.754;2022-08-19T13:47:45;9.73;;;7.15;;
62006;SDS011;47963;53.008;6.754;2022-08-19T13:50:12;10.25;;;6.93;;
62006;SDS011;47963;53.008;6.754;2022-08-19T13:52:41;8.55;;;6.60;;
62006;SDS011;47963;53.008;6.754;2022-08-19T13:55:08;9.98;;;6.78;;
62006;SDS011;47963;53.008;6.754;2022-08-19T13:57:35;10.07;;;7.60;;
62006;SDS011;47963;53.008;6.754;2022-08-19T14:00:04;9.52;;;7.40;;
62006;SDS011;47963;53.008;6.754;2022-08-19T14:02:37;10.73;;;8.05;;
62006;SDS011;47963;53.008;6.754;2022-08-19T14:05:05;10.88;;;8.38;;
62006;SDS011;47963;53.008;6.754;2022-08-19T14:07:32;14.40;;;11.50;;
62006;SDS011;47963;53.008;6.754;2022-08-19T14:09:58;15.65;;;13.55;;
62006;SDS011;47963;53.008;6.754;2022-08-19T14:12:24;23.42;;;17.88;;
62006;SDS011;47963;53.008;6.754;2022-08-19T14:14:49;21.55;;;18.10;;
62006;SDS011;47963;53.008;6.754;2022-08-19T14:17:15;22.05;;;19.70;;
62006;SDS011;47963;53.008;6.754;2022-08-19T14:19:41;20.17;;;18.10;;
62006;SDS011;47963;53.008;6.754;2022-08-19T14:22:07;22.60;;;20.30;;
62006;SDS011;47963;53.008;6.754;2022-08-19T14:24:34;21.77;;;19.48;;
62006;SDS011;47963;53.008;6.754;2022-08-19T14:27:02;22.17;;;18.80;;
62006;SDS011;47963;53.008;6.754;2022-08-19T14:29:28;21.10;;;18.67;;
62006;SDS011;47963;53.008;6.754;2022-08-19T14:31:54;19.92;;;17.55;;
62006;SDS011;47963;53.008;6.754;2022-08-19T14:34:21;18.90;;;16.85;;
62006;SDS011;47963;53.008;6.754;2022-08-19T14:36:47;19.92;;;17.80;;
62006;SDS011;47963;53.008;6.754;2022-08-19T14:39:13;21.42;;;17.98;;
62006;SDS011;47963;53.008;6.754;2022-08-19T14:41:39;21.83;;;18.10;;
62006;SDS011;47963;53.008;6.754;2022-08-19T14:44:06;19.65;;;16.92;;
62006;SDS011;47963;53.008;6.754;2022-08-19T14:46:35;19.85;;;16.73;;
62006;SDS011;47963;53.008;6.754;2022-08-19T14:49:00;19.40;;;16.25;;